San Diego International Airport
KSAN : now visible

Airfield :











YOU CAN JOIN US ON...

 
LOGIN :

Register | Disclaimer

   EN    FR    IT 

 









Legend :    VFR   Marginal VFR   IFR   Intensive IFR   Very Intensive IFR
Visi :
Ceiling :
>= 8 km
>= 3000ft
5 to 8 km
1000 to 3000 ft
1500m to 5 km
500 to 1000 ft
800 to 1500m
200 to 500 ft
< 800m
< 200 ft
Symbols :   Thunderstorms  Fog  Heavy snow  Heavy precipitations  Wind > 20 kt







- Airport Elevation : 17 ft
- IATA code : SAN


KSAN - San Diego International

CURRENT METAR :
  • 210651Z 29009KT 9SM -RA SCT028 SCT034 BKN048 OVC150 12/07 A2979 RMK AO2 RAB48 SLP086 P0000 T01220067

EXPIRED METARs :
  • 210551Z 24010KT 10SM FEW035 SCT060 SCT080 BKN180 12/07 A2980 RMK AO2 RAE0456B21E35 SLP091 VCSH P0000 60001 T01220072 10133 20117 58012
  • 210451Z 26009KT 10SM -RA FEW020 BKN037 BKN050 12/08 A2982 RMK AO2 RAE11B38 SLP096 P0001 T01170078

TAF KSAN
Valid from the 21 at 06:00 until the 22 at 12:00 UTC


210541Z 2106/2212 26009KT P6SM -SHRA SCT025 OVC035
FM211000 28015G25KT 5SM -SHRA BR BKN025 OVC035
FM220100 29011KT P6SM VCSH SCT025 BKN040
FM220800 VRB04KT P6SM SCT040
KZLA FIR / North America



MET'MAP, your aeronautical weather chart ! - Copyright ORBIFLY December 2007 - Disclaimer

ORBIFLY MET'MAP TEAM :

Programming & Development : Alexandra Zaïnal
Concept & Development : Baudouin d'Aumeries
Co-Development & Prog : Marc-Olivier Méhu
Technical & hardware support : Manuel Goepfert

Contact : metmap@orbifly.com




SOURCES & CREDITS :

   NOAA       Earth
Advisory